»·PEaware :: PAA576 KLAX-KSLC

PAA576 :: KLAX-KSLC

FLIGHT INFORMATION

Flight Status: Arrived
Operator:
PanAm
More flights by this operator :: More flights under this callsign
Pilot: Anonymous 8274 (8274)
Aircraft: BOEING 737-200
(B732)
More flights by this aircraft type
Origin: KLAX Los Angeles Intl
United States
Destination: KSLC Salt Lake City Intl
United States
More flights between these airports :: More routes between these airports
Route: SEBBY2 DAG J146 FREDD J11 BCE JAMMN5
File this flight plan on PilotEdge
Remarks:
Altitude:
(Current/Filed)
31,000ft
Speed:
(Current/Filed)
460kts
Departed: 15-Jun-18 07:55 PM
Arrived: 15-Jun-18 09:34 PM
Distance/Time
Traveled:
512nm/1:39
Distance/Time
To Go:
Arrived

Flight Plot

Page will automatically refresh every two minutes.

Flight plan parsing failed; only flown route is shown


Map Options




Map Legend


Flown Route
Filed Route
Departure Airport
Arrival Airport
Navaid (VOR, NDB)
Fix

Horizontal Profiles

Position Reports

Time Latitude Longitude Heading Altitude Ground
Speed
15-Jun-18 19:28 33.941137 -118.400162 95 112ft 0kts
15-Jun-18 19:29 33.941137 -118.400162 95 112ft 0kts
15-Jun-18 19:30 33.941137 -118.400162 95 112ft 0kts
15-Jun-18 19:31 33.941137 -118.400162 95 112ft 0kts
15-Jun-18 19:32 33.941137 -118.400162 95 112ft 0kts
15-Jun-18 19:33 33.941137 -118.400163 95 111ft 0kts
15-Jun-18 19:34 33.941137 -118.400163 95 111ft 0kts
15-Jun-18 19:35 33.941137 -118.400163 95 111ft 0kts
15-Jun-18 19:36 33.941137 -118.400163 95 111ft 0kts
15-Jun-18 19:37 33.941137 -118.400163 95 111ft 0kts
15-Jun-18 19:38 33.941137 -118.400163 95 111ft 0kts
15-Jun-18 19:39 33.941137 -118.400163 95 111ft 0kts
15-Jun-18 19:40 33.941137 -118.400163 95 111ft 0kts
15-Jun-18 19:41 33.941137 -118.400163 95 111ft 0kts
15-Jun-18 19:42 33.941161 -118.400452 101 111ft 2kts
15-Jun-18 19:43 33.941519 -118.400847 175 111ft 1kts
15-Jun-18 19:44 33.941562 -118.400852 171 111ft 0kts
15-Jun-18 19:45 33.941562 -118.400852 171 111ft 0kts
15-Jun-18 19:46 33.941519 -118.400845 172 111ft 4kts
15-Jun-18 19:47 33.940361 -118.400682 172 111ft 0kts
15-Jun-18 19:48 33.940361 -118.400682 172 111ft 0kts
15-Jun-18 19:49 33.940361 -118.400682 172 111ft 0kts
15-Jun-18 19:50 33.940234 -118.400660 172 111ft 6kts
15-Jun-18 19:51 33.938955 -118.398246 83 111ft 15kts
15-Jun-18 19:52 33.939632 -118.391681 83 111ft 21kts
15-Jun-18 19:53 33.940365 -118.384591 83 111ft 21kts
15-Jun-18 19:54 33.940358 -118.379991 176 111ft 7kts
15-Jun-18 19:55 33.937996 -118.399227 263 268ft 147kts
15-Jun-18 19:56 33.934122 -118.449722 263 2329ft 185kts
15-Jun-18 19:57 33.919773 -118.504565 233 4234ft 245kts
15-Jun-18 19:58 33.875079 -118.566960 211 6164ft 303kts
15-Jun-18 19:59 33.791553 -118.564536 172 9720ft 307kts
15-Jun-18 20:00 33.703398 -118.546492 172 12082ft 333kts
15-Jun-18 20:01 33.606034 -118.505600 128 14731ft 355kts
15-Jun-18 20:02 33.602573 -118.411125 58 16434ft 368kts
15-Jun-18 20:03 33.658723 -118.308342 56 16968ft 370kts
15-Jun-18 20:04 33.711222 -118.204034 58 16969ft 370kts
15-Jun-18 20:05 33.760855 -118.096189 59 16969ft 370kts
15-Jun-18 20:06 33.824331 -118.005617 24 17624ft 374kts
15-Jun-18 20:07 33.915690 -117.945979 38 19264ft 383kts
15-Jun-18 20:08 33.998074 -117.864047 38 20690ft 391kts
15-Jun-18 20:09 34.082045 -117.780370 38 21960ft 398kts
15-Jun-18 20:10 34.165179 -117.697052 44 23055ft 405kts
15-Jun-18 20:11 34.241542 -117.595355 47 24084ft 412kts
15-Jun-18 20:12 34.317107 -117.492774 47 24993ft 417kts
15-Jun-18 20:13 34.394642 -117.387480 47 25822ft 422kts
15-Jun-18 20:14 34.471247 -117.281650 49 26550ft 427kts
15-Jun-18 20:15 34.547540 -117.170631 49 27215ft 432kts
15-Jun-18 20:16 34.620257 -117.059103 51 27802ft 436kts
15-Jun-18 20:17 34.694035 -116.943553 48 29043ft 420kts
15-Jun-18 20:18 34.769858 -116.842778 45 30284ft 402kts
15-Jun-18 20:19 34.846804 -116.745804 48 30751ft 402kts
15-Jun-18 20:20 34.922322 -116.642974 48 30752ft 414kts
15-Jun-18 20:21 35.003716 -116.544477 43 30773ft 414kts
15-Jun-18 20:22 35.082060 -116.442376 47 30774ft 414kts
15-Jun-18 20:23 35.155987 -116.344471 47 30778ft 414kts
15-Jun-18 20:24 35.231011 -116.244767 47 30780ft 415kts
15-Jun-18 20:25 35.308975 -116.140860 47 30779ft 416kts
15-Jun-18 20:26 35.387775 -116.037031 46 30777ft 416kts
15-Jun-18 20:27 35.466689 -115.935197 46 30751ft 414kts
15-Jun-18 20:28 35.545403 -115.833372 46 30749ft 412kts
15-Jun-18 20:29 35.624089 -115.731930 45 30749ft 411kts
15-Jun-18 20:30 35.703745 -115.632173 45 30748ft 409kts
15-Jun-18 20:31 35.784474 -115.533202 44 30748ft 410kts
15-Jun-18 20:32 35.865690 -115.434798 44 30721ft 412kts
15-Jun-18 20:33 35.944987 -115.338496 44 30748ft 412kts
15-Jun-18 20:34 36.024173 -115.240337 46 30721ft 414kts
15-Jun-18 20:35 36.098483 -115.132209 62 30710ft 415kts
15-Jun-18 20:36 36.131653 -114.998712 73 30726ft 418kts
15-Jun-18 20:37 36.167154 -114.862943 66 30698ft 418kts
15-Jun-18 20:38 36.210559 -114.729919 66 30725ft 419kts
15-Jun-18 20:39 36.254220 -114.596321 66 30697ft 420kts
15-Jun-18 20:40 36.298070 -114.462200 66 30696ft 420kts
15-Jun-18 20:41 36.339178 -114.329867 67 30698ft 421kts
15-Jun-18 20:42 36.380096 -114.197885 67 30698ft 421kts
15-Jun-18 20:43 36.421861 -114.063307 67 30778ft 420kts
15-Jun-18 20:44 36.463759 -113.928326 67 30778ft 420kts
15-Jun-18 20:45 36.505493 -113.793959 67 30777ft 420kts
15-Jun-18 20:46 36.544379 -113.657377 69 30777ft 421kts
15-Jun-18 20:47 36.582553 -113.520115 68 30776ft 421kts
15-Jun-18 20:48 36.627954 -113.386432 68 30761ft 424kts
15-Jun-18 20:49 36.676812 -113.261475 69 30959ft 423kts
15-Jun-18 20:50 36.726616 -113.128505 71 30971ft 427kts
15-Jun-18 20:51 36.771478 -112.991331 73 30971ft 430kts
15-Jun-18 20:52 36.813728 -112.851518 75 30971ft 433kts
15-Jun-18 20:53 36.854401 -112.709340 76 30972ft 435kts
15-Jun-18 20:54 36.892227 -112.565451 76 30971ft 439kts
15-Jun-18 20:55 36.930202 -112.421126 76 30971ft 441kts
15-Jun-18 20:56 36.994056 -112.300166 31 30987ft 468kts
15-Jun-18 20:57 37.118870 -112.290051 353 31072ft 475kts
15-Jun-18 20:58 37.246412 -112.322030 345 31073ft 476kts
15-Jun-18 20:59 37.375910 -112.342879 2 31072ft 478kts
15-Jun-18 21:00 37.508037 -112.330107 7 31075ft 479kts
15-Jun-18 21:01 37.638923 -112.308074 9 31077ft 481kts
15-Jun-18 21:02 37.770698 -112.315274 353 31081ft 482kts
15-Jun-18 21:03 37.902955 -112.329097 355 31098ft 485kts
15-Jun-18 21:04 38.036389 -112.347079 351 31092ft 486kts
15-Jun-18 21:05 38.162328 -112.355441 350 31068ft 482kts
15-Jun-18 21:06 38.291508 -112.369930 348 30953ft 478kts
15-Jun-18 21:07 38.423218 -112.388372 348 30854ft 476kts
15-Jun-18 21:08 38.552056 -112.406228 348 30854ft 473kts
15-Jun-18 21:09 38.681387 -112.425565 346 30803ft 469kts
15-Jun-18 21:10 38.809224 -112.448493 346 30801ft 464kts
15-Jun-18 21:11 38.936894 -112.467111 349 30802ft 463kts
15-Jun-18 21:12 39.064644 -112.478736 350 30803ft 461kts
15-Jun-18 21:13 39.135911 -112.484827 350 29941ft 449kts
15-Jun-18 21:14 39.253550 -112.495363 350 27611ft 438kts
15-Jun-18 21:15 39.368248 -112.486176 15 25414ft 440kts
15-Jun-18 21:16 39.481137 -112.435754 15 23230ft 427kts
15-Jun-18 21:17 39.592536 -112.395815 4 21066ft 410kts
15-Jun-18 21:18 39.703844 -112.374422 4 18939ft 401kts
15-Jun-18 21:19 39.811933 -112.350211 8 17044ft 387kts
15-Jun-18 21:20 39.916499 -112.320345 11 17013ft 393kts
15-Jun-18 21:21 40.023552 -112.285100 11 17012ft 407kts
15-Jun-18 21:22 40.123879 -112.246079 33 16995ft 393kts
15-Jun-18 21:23 40.189973 -112.148562 57 15265ft 368kts
15-Jun-18 21:24 40.243162 -112.041253 60 12600ft 334kts
15-Jun-18 21:25 40.293449 -111.950498 26 11022ft 300kts
15-Jun-18 21:26 40.369180 -111.949099 356 11007ft 271kts
15-Jun-18 21:27 40.442848 -111.951881 0 10999ft 266kts
15-Jun-18 21:28 40.513194 -111.948512 1 9574ft 247kts
15-Jun-18 21:29 40.580810 -111.947907 351 7462ft 242kts
15-Jun-18 21:30 40.645117 -111.958053 356 6051ft 212kts
15-Jun-18 21:31 40.696579 -111.963684 353 5781ft 155kts
15-Jun-18 21:32 40.737476 -111.968734 352 4997ft 148kts
15-Jun-18 21:33 40.773554 -111.972978 353 4312ft 145kts
15-Jun-18 21:34 40.796710 -111.975796 322 4236ft 17kts
15-Jun-18 21:35 40.796876 -111.977062 264 4236ft 0kts
15-Jun-18 21:36 40.794027 -111.977568 175 4236ft 25kts
15-Jun-18 21:37 40.789650 -111.979179 263 4236ft 15kts
15-Jun-18 21:38 40.788508 -111.980754 282 4236ft 0kts

Navigation Log

Ident Type
Flight plan parsing failed, navigation log unavailable